createdAt,value
2022-11-02T00:00:41.355Z,4.23
2022-11-02T00:03:11.841Z,4.00
2022-11-02T00:05:41.037Z,4.43
2022-11-02T00:08:10.256Z,4.07
2022-11-02T00:10:39.401Z,4.10
2022-11-02T00:13:08.729Z,4.03
2022-11-02T00:15:38.340Z,4.67
2022-11-02T00:18:10.414Z,3.93
2022-11-02T00:20:41.935Z,4.50
2022-11-02T00:23:13.409Z,4.63
2022-11-02T00:25:45.179Z,4.40
2022-11-02T00:28:14.565Z,4.47
2022-11-02T00:30:43.604Z,4.10
2022-11-02T00:33:12.048Z,4.20
2022-11-02T00:35:42.811Z,5.40
2022-11-02T00:38:11.208Z,4.37
2022-11-02T00:40:39.726Z,3.97
2022-11-02T00:43:08.131Z,3.90
2022-11-02T00:45:36.617Z,3.77
2022-11-02T00:48:06.099Z,3.87
2022-11-02T00:50:34.979Z,5.00
2022-11-02T00:53:05.701Z,4.20
2022-11-02T00:55:34.190Z,4.27
2022-11-02T00:58:05.503Z,3.90
2022-11-02T01:00:34.604Z,3.87
2022-11-02T01:03:03.423Z,3.90
2022-11-02T01:05:32.214Z,4.00
2022-11-02T01:08:00.564Z,3.80
2022-11-02T01:10:30.418Z,3.80
2022-11-02T01:12:58.776Z,4.03
2022-11-02T01:15:27.304Z,3.87
2022-11-02T01:17:55.892Z,4.83
2022-11-02T01:20:24.226Z,4.60
2022-11-02T01:22:53.870Z,5.13
2022-11-02T01:25:22.312Z,5.00
2022-11-02T01:27:53.835Z,4.13
2022-11-02T01:30:22.486Z,3.80
2022-11-02T01:32:50.945Z,3.47
2022-11-02T01:35:19.392Z,4.43
2022-11-02T01:37:47.879Z,4.27
2022-11-02T01:40:16.339Z,3.87
2022-11-02T01:42:44.694Z,3.77
2022-11-02T01:45:15.657Z,4.17
2022-11-02T01:47:47.182Z,4.00
2022-11-02T01:50:20.475Z,4.10
2022-11-02T01:52:48.906Z,4.60
2022-11-02T01:55:21.488Z,4.10
2022-11-02T01:57:54.568Z,3.63
2022-11-02T02:00:24.730Z,4.17
2022-11-02T02:02:57.266Z,3.50
2022-11-02T02:05:26.768Z,3.77
2022-11-02T02:07:57.039Z,3.97
2022-11-02T02:10:25.891Z,3.27
2022-11-02T02:12:54.143Z,4.60
2022-11-02T02:15:36.119Z,3.73
2022-11-02T02:21:28.287Z,4.17
2022-11-02T02:24:20.746Z,4.47
2022-11-02T02:27:05.177Z,3.97
2022-11-02T02:29:40.435Z,3.83
2022-11-02T02:32:15.019Z,4.20
2022-11-02T02:34:52.509Z,3.17
2022-11-02T02:37:27.367Z,4.23
2022-11-02T02:40:03.058Z,3.67
2022-11-02T02:42:39.919Z,3.43
2022-11-02T02:45:17.282Z,3.73
2022-11-02T02:47:50.839Z,3.60
2022-11-02T02:50:22.875Z,4.27
2022-11-02T02:52:53.260Z,3.70
2022-11-02T02:55:28.158Z,4.07
2022-11-02T02:57:59.280Z,3.17
2022-11-02T03:00:30.113Z,3.80
2022-11-02T03:03:04.372Z,2.97
2022-11-02T03:05:36.636Z,3.20
2022-11-02T03:08:11.972Z,3.40
2022-11-02T03:10:48.809Z,3.33
2022-11-02T03:13:36.528Z,3.63
2022-11-02T03:16:15.103Z,3.50
2022-11-02T03:18:50.509Z,3.83
2022-11-02T03:21:26.605Z,3.63
2022-11-02T03:24:01.163Z,3.67
2022-11-02T03:26:33.702Z,3.40
2022-11-02T03:29:09.271Z,3.77
2022-11-02T03:31:43.863Z,4.30
2022-11-02T03:34:24.476Z,3.67
2022-11-02T03:37:01.634Z,3.60
2022-11-02T03:39:36.431Z,3.77
2022-11-02T03:42:06.234Z,3.10
2022-11-02T03:44:40.090Z,3.00
2022-11-02T03:47:14.449Z,4.03
2022-11-02T03:49:45.040Z,3.93
2022-11-02T03:52:24.455Z,3.50
2022-11-02T03:54:59.962Z,3.63
2022-11-02T03:57:33.816Z,3.43
2022-11-02T04:00:10.883Z,4.20
2022-11-02T04:02:47.585Z,4.00
2022-11-02T04:05:16.844Z,3.50
2022-11-02T04:08:08.543Z,3.50
2022-11-02T04:10:56.913Z,3.43
2022-11-02T04:13:42.478Z,3.23
2022-11-02T04:16:10.906Z,3.60
2022-11-02T04:18:59.428Z,3.40
2022-11-02T04:21:28.612Z,3.00
2022-11-02T04:24:15.405Z,3.30
2022-11-02T04:26:44.448Z,4.17
2022-11-02T04:29:12.808Z,3.37
2022-11-02T04:31:41.951Z,3.63
2022-11-02T04:34:10.699Z,3.87
2022-11-02T04:36:39.482Z,2.93
2022-11-02T04:39:06.760Z,3.67
2022-11-02T04:41:43.980Z,3.40
2022-11-02T04:44:32.446Z,3.40
2022-11-02T04:47:04.472Z,3.70
2022-11-02T04:49:35.943Z,4.20
2022-11-02T04:52:06.864Z,4.27
2022-11-02T04:54:37.088Z,3.87
2022-11-02T04:57:07.519Z,4.50
2022-11-02T04:59:35.758Z,3.73
2022-11-02T05:02:04.760Z,4.10
2022-11-02T05:04:35.456Z,3.87
2022-11-02T05:07:06.403Z,3.60
2022-11-02T05:09:36.747Z,3.00
2022-11-02T05:12:06.767Z,2.90
2022-11-02T05:14:35.989Z,3.23
2022-11-02T05:17:05.470Z,3.13
2022-11-02T05:19:36.532Z,3.43
2022-11-02T05:22:06.453Z,3.40
2022-11-02T05:24:35.644Z,2.67
2022-11-02T05:27:06.059Z,3.20
2022-11-02T05:29:37.038Z,3.67
2022-11-02T05:32:05.963Z,2.97
2022-11-02T05:34:36.300Z,3.00
2022-11-02T05:37:04.612Z,2.87
2022-11-02T05:39:33.007Z,3.20
2022-11-02T05:42:01.335Z,3.17
2022-11-02T05:44:29.778Z,3.63
2022-11-02T05:46:58.095Z,3.03
2022-11-02T05:49:26.298Z,3.10
2022-11-02T05:51:55.944Z,3.20
2022-11-02T05:54:24.224Z,3.43
2022-11-02T05:56:52.400Z,3.47
2022-11-02T05:59:20.767Z,3.83
2022-11-02T06:01:49.053Z,3.00
2022-11-02T06:04:17.380Z,2.70
2022-11-02T06:06:45.727Z,3.00
2022-11-02T06:09:15.371Z,2.80
2022-11-02T06:11:43.646Z,2.83
2022-11-02T06:14:12.055Z,3.17
2022-11-02T06:16:40.279Z,3.07
2022-11-02T06:19:08.548Z,3.43
2022-11-02T06:21:36.920Z,3.00
2022-11-02T06:24:05.735Z,2.93
2022-11-02T06:26:35.519Z,3.00
2022-11-02T06:29:03.880Z,2.50
2022-11-02T06:31:34.770Z,2.50
2022-11-02T06:34:03.390Z,2.90
2022-11-02T06:36:31.714Z,2.60
2022-11-02T06:39:00.184Z,2.37
2022-11-02T06:41:28.503Z,2.47
2022-11-02T06:43:58.170Z,2.27
2022-11-02T22:32:54.076Z,4.53
2022-11-02T22:35:22.472Z,3.60
2022-11-02T22:38:08.426Z,4.03
2022-11-02T22:40:36.783Z,3.93
2022-11-02T22:43:05.473Z,4.07
2022-11-02T22:45:34.096Z,4.27
2022-11-02T22:48:04.006Z,3.97
2022-11-02T22:50:32.490Z,4.00
2022-11-02T22:53:00.869Z,4.40
2022-11-02T22:55:31.489Z,4.00
2022-11-02T22:58:00.155Z,3.80
2022-11-02T23:00:28.596Z,3.73
2022-11-02T23:02:56.933Z,3.87
2022-11-02T23:05:26.803Z,3.63
2022-11-02T23:07:55.371Z,3.20
2022-11-02T23:10:40.968Z,3.93
2022-11-02T23:13:09.602Z,3.80
2022-11-02T23:15:38.277Z,4.47
2022-11-02T23:18:06.766Z,3.63
2022-11-02T23:20:35.607Z,3.63
2022-11-02T23:23:21.278Z,3.40
2022-11-02T23:25:56.177Z,3.10
2022-11-02T23:28:42.573Z,3.70
2022-11-02T23:31:28.647Z,3.70
2022-11-02T23:33:57.069Z,3.70
2022-11-02T23:36:25.837Z,3.50
2022-11-02T23:39:11.405Z,3.20
2022-11-02T23:41:41.561Z,3.53
2022-11-02T23:44:13.903Z,3.37
2022-11-02T23:46:43.596Z,3.63
2022-11-02T23:49:12.548Z,3.23
2022-11-02T23:52:14.766Z,3.17
2022-11-02T23:55:00.488Z,3.63
2022-11-02T23:57:30.305Z,3.50
2022-11-02T23:59:58.663Z,3.20
